createdAt,value
2023-01-21T00:02:08.691Z,101216.00
2023-01-21T00:04:38.286Z,101219.00
2023-01-21T00:07:05.405Z,101229.19
2023-01-21T00:09:32.194Z,101222.28
2023-01-21T00:11:59.235Z,101230.53
2023-01-21T00:14:34.689Z,101229.88
2023-01-21T00:17:04.511Z,101227.59
2023-01-21T00:19:33.637Z,101235.47
2023-01-21T00:22:00.307Z,101233.78
2023-01-21T00:24:27.181Z,101236.31
2023-01-21T00:26:53.935Z,101237.13
2023-01-21T00:29:21.531Z,101245.84
2023-01-21T00:31:49.064Z,101239.44
2023-01-21T00:34:15.975Z,101238.13
2023-01-21T00:36:42.768Z,101234.81
2023-01-21T00:39:09.571Z,101249.25
2023-01-21T00:41:37.572Z,101247.22
2023-01-21T00:44:04.808Z,101257.44
2023-01-21T00:46:32.264Z,101252.78
2023-01-21T00:49:00.423Z,101254.78
2023-01-21T00:51:27.851Z,101261.00
2023-01-21T00:53:57.613Z,101263.13
2023-01-21T00:56:24.646Z,101267.25
2023-01-21T00:58:51.484Z,101264.91
2023-01-21T01:01:19.932Z,101271.00
2023-01-21T01:03:47.569Z,101280.75
2023-01-21T01:06:19.288Z,101288.00
2023-01-21T01:08:46.711Z,101285.69
2023-01-21T01:11:14.219Z,101290.88
2023-01-21T01:13:41.021Z,101297.59
2023-01-21T01:16:07.816Z,101300.44
2023-01-21T01:18:35.352Z,101304.72
2023-01-21T01:21:02.583Z,101308.00
2023-01-21T01:23:29.684Z,101309.66
2023-01-21T01:25:56.996Z,101311.66
2023-01-21T01:28:23.928Z,101319.44
2023-01-21T01:30:51.533Z,101314.31
2023-01-21T01:33:19.295Z,101328.31
2023-01-21T01:35:49.430Z,101327.50
2023-01-21T01:38:17.109Z,101326.50
2023-01-21T01:40:43.968Z,101329.50
2023-01-21T01:43:18.092Z,101331.66
2023-01-21T01:45:44.685Z,101337.06
2023-01-21T01:48:15.629Z,101331.59
2023-01-21T01:50:42.780Z,101337.06
2023-01-21T01:53:11.153Z,101339.78
2023-01-21T01:55:38.873Z,101344.03
2023-01-21T01:58:06.942Z,101338.13
2023-01-21T02:00:34.455Z,101345.06
2023-01-21T02:03:19.848Z,101344.34
2023-01-21T02:05:46.873Z,101347.44
2023-01-21T02:08:13.968Z,101348.91
2023-01-21T02:10:40.677Z,101350.84
2023-01-21T02:13:07.229Z,101349.88
2023-01-21T02:15:57.161Z,101353.69
2023-01-21T02:18:46.482Z,101358.63
2023-01-21T02:21:13.071Z,101360.09
2023-01-21T02:23:42.645Z,101361.69
2023-01-21T02:26:28.029Z,101358.31
2023-01-21T02:29:06.881Z,101361.59
2023-01-21T02:31:48.664Z,101360.41
2023-01-21T02:34:15.242Z,101370.56
2023-01-21T02:36:53.989Z,101371.53
2023-01-21T02:39:29.359Z,101372.31
2023-01-21T02:42:04.973Z,101384.81
2023-01-21T02:44:39.574Z,101382.53
2023-01-21T02:47:08.829Z,101381.44
2023-01-21T02:49:38.498Z,101384.19
2023-01-21T02:52:05.028Z,101390.00
2023-01-21T02:54:40.801Z,101388.53
2023-01-21T02:57:13.373Z,101391.53
2023-01-21T02:59:42.416Z,101401.13
2023-01-21T03:02:18.318Z,101405.56
2023-01-21T03:04:50.877Z,101410.72
2023-01-21T03:07:56.226Z,101409.75
2023-01-21T03:10:31.385Z,101409.09
2023-01-21T03:13:07.250Z,101421.63
2023-01-21T03:15:57.606Z,101410.72
2023-01-21T03:18:26.531Z,101421.94
2023-01-21T03:21:01.775Z,101421.63
2023-01-21T03:23:39.286Z,101424.25
2023-01-21T03:26:07.490Z,101428.06
2023-01-21T03:28:36.138Z,101430.84
2023-01-21T03:31:11.697Z,101426.69
2023-01-21T03:33:40.546Z,101428.00
2023-01-21T03:36:11.811Z,101427.34
2023-01-21T03:38:42.624Z,101431.13
2023-01-21T03:41:13.941Z,101439.03
2023-01-21T03:43:40.543Z,101435.56
2023-01-21T03:46:14.042Z,101441.66
2023-01-21T03:48:59.368Z,101448.41
2023-01-21T03:51:29.265Z,101449.25
2023-01-21T03:53:56.495Z,101443.97
2023-01-21T03:56:24.141Z,101445.00
2023-01-21T03:58:50.556Z,101447.50
2023-01-21T04:01:17.030Z,101445.69
2023-01-21T04:03:43.644Z,101459.53
2023-01-21T04:06:13.988Z,101459.22
2023-01-21T04:08:40.666Z,101461.00
2023-01-21T04:11:07.109Z,101463.63
2023-01-21T04:13:33.621Z,101465.78
2023-01-21T04:16:00.107Z,101465.47
2023-01-21T04:18:26.625Z,101463.47
2023-01-21T04:20:53.241Z,101474.19
2023-01-21T04:23:19.759Z,101479.31
2023-01-21T04:25:49.920Z,101478.66
2023-01-21T04:28:16.540Z,101485.28
2023-01-21T04:30:43.049Z,101486.59
2023-01-21T04:33:09.733Z,101489.38
2023-01-21T04:35:36.434Z,101491.22
2023-01-21T04:38:03.078Z,101493.84
2023-01-21T04:40:29.691Z,101484.59
2023-01-21T04:42:56.244Z,101480.16
2023-01-21T04:45:22.878Z,101494.16
2023-01-21T04:47:49.462Z,101493.66
2023-01-21T04:50:16.519Z,101497.13
2023-01-21T04:52:43.127Z,101493.50
2023-01-21T04:55:10.207Z,101504.88
2023-01-21T04:57:37.170Z,101500.41
2023-01-21T05:00:05.474Z,101503.25
2023-01-21T05:02:32.539Z,101501.09
2023-01-21T05:04:59.439Z,101497.16
2023-01-21T05:07:26.995Z,101503.06
2023-01-21T05:09:53.429Z,101512.44
2023-01-21T05:12:19.923Z,101526.44
2023-01-21T05:14:46.508Z,101528.06
2023-01-21T05:17:13.008Z,101521.44
2023-01-21T05:19:39.557Z,101522.44
2023-01-21T05:22:06.071Z,101526.41
2023-01-21T05:24:32.622Z,101522.09
2023-01-21T05:26:59.194Z,101532.56
2023-01-21T05:29:25.767Z,101544.22
2023-01-21T05:31:52.366Z,101549.50
2023-01-21T05:34:18.893Z,101550.63
2023-01-21T05:36:45.395Z,101552.25
2023-01-21T05:39:11.850Z,101557.84
2023-01-21T05:41:38.291Z,101566.22
2023-01-21T05:44:04.857Z,101563.06
2023-01-21T05:46:31.377Z,101569.97
2023-01-21T05:48:57.852Z,101568.31
2023-01-21T05:51:24.452Z,101572.63
2023-01-21T05:53:50.957Z,101574.63
2023-01-21T05:56:17.451Z,101581.19
2023-01-21T05:58:43.984Z,101579.53
2023-01-21T06:01:10.545Z,101588.03
2023-01-21T06:03:38.166Z,101595.13
2023-01-21T06:06:04.962Z,101592.16
2023-01-21T06:08:31.406Z,101587.63
2023-01-21T06:10:57.891Z,101586.66
2023-01-21T06:13:24.472Z,101591.09
2023-01-21T06:15:53.996Z,101595.69
2023-01-21T06:18:20.528Z,101600.59
2023-01-21T06:20:46.972Z,101600.91
2023-01-21T06:23:13.461Z,101604.50
2023-01-21T06:25:40.798Z,101602.56
2023-01-21T06:28:07.254Z,101609.31
2023-01-21T06:30:33.707Z,101609.16
2023-01-21T06:33:00.174Z,101617.38
2023-01-21T06:35:26.675Z,101613.75
2023-01-21T06:37:53.125Z,101617.06
2023-01-21T06:40:19.716Z,101621.38
2023-01-21T06:42:46.962Z,101628.25
2023-01-21T06:45:13.574Z,101643.44
2023-01-21T06:47:41.473Z,101641.13
2023-01-21T06:50:09.203Z,101645.69
2023-01-21T06:52:35.622Z,101646.56
2023-01-21T06:55:02.095Z,101645.63
2023-01-21T06:57:28.535Z,101649.22
2023-01-21T06:59:54.986Z,101649.53
2023-01-21T07:02:21.497Z,101647.88
2023-01-21T07:04:50.836Z,101643.13
2023-01-21T07:07:17.551Z,101654.13
2023-01-21T07:09:44.396Z,101660.34
2023-01-21T07:12:10.913Z,101667.28
2023-01-21T07:14:37.501Z,101662.31
2023-01-21T07:17:04.084Z,101664.06
2023-01-21T07:19:30.609Z,101673.75
2023-01-21T07:21:57.159Z,101669.09
2023-01-21T07:24:23.678Z,101674.09
2023-01-21T07:26:50.214Z,101672.09
2023-01-21T07:29:16.968Z,101666.22
2023-01-21T07:31:43.502Z,101677.88
2023-01-21T07:34:10.188Z,101673.75
2023-01-21T07:36:36.668Z,101683.16
2023-01-21T07:39:03.160Z,101683.97
2023-01-21T07:41:29.721Z,101685.66
2023-01-21T07:43:56.225Z,101689.09
2023-01-21T07:46:23.449Z,101693.09
2023-01-21T07:48:51.697Z,101701.13
2023-01-21T07:51:21.877Z,101709.69
2023-01-21T07:53:48.466Z,101715.28
2023-01-21T07:56:16.249Z,101709.63
2023-01-21T07:58:42.788Z,101711.44
2023-01-21T08:01:10.017Z,101713.59
2023-01-21T08:03:38.873Z,101712.31
2023-01-21T08:06:05.933Z,101718.13
2023-01-21T08:08:33.192Z,101713.25
2023-01-21T08:11:00.068Z,101713.16
2023-01-21T08:13:27.387Z,101718.94
2023-01-21T08:15:56.016Z,101727.53
2023-01-21T08:18:23.405Z,101728.06
2023-01-21T08:21:00.116Z,101726.31
2023-01-21T08:23:27.329Z,101719.63
2023-01-21T08:25:54.999Z,101723.66
2023-01-21T08:28:22.655Z,101728.31
2023-01-21T08:30:49.585Z,101732.00
2023-01-21T08:33:16.272Z,101735.34
2023-01-21T08:35:43.204Z,101737.38
2023-01-21T08:38:10.113Z,101738.13
2023-01-21T08:40:36.619Z,101746.38
2023-01-21T08:43:04.839Z,101753.28
2023-01-21T08:45:32.067Z,101747.38
2023-01-21T08:47:58.674Z,101745.59
2023-01-21T08:50:26.563Z,101745.31
2023-01-21T08:52:54.070Z,101754.28
2023-01-21T08:55:22.051Z,101753.31
2023-01-21T08:57:52.057Z,101753.34
2023-01-21T09:00:19.224Z,101750.06
2023-01-21T09:02:46.214Z,101752.38
2023-01-21T09:05:12.707Z,101758.19
2023-01-21T09:07:39.241Z,101750.91
2023-01-21T09:10:06.063Z,101763.97
2023-01-21T09:12:32.776Z,101755.19
2023-01-21T09:14:59.315Z,101757.84
2023-01-21T09:17:26.270Z,101757.19
2023-01-21T09:19:55.282Z,101763.78
2023-01-21T09:22:21.967Z,101766.13
2023-01-21T09:24:48.535Z,101775.69
2023-01-21T09:27:15.063Z,101773.69
2023-01-21T09:29:41.607Z,101775.69
2023-01-21T09:32:08.104Z,101778.97
2023-01-21T09:34:35.832Z,101778.97
2023-01-21T09:37:03.065Z,101782.94
2023-01-21T09:39:29.671Z,101790.69
2023-01-21T09:41:56.668Z,101787.22
2023-01-21T09:44:44.067Z,101787.56
2023-01-21T09:47:24.944Z,101788.03
2023-01-21T09:49:51.887Z,101794.97
2023-01-21T09:52:37.456Z,101794.31
2023-01-21T09:55:07.355Z,101799.41
2023-01-21T09:57:34.062Z,101792.59
2023-01-21T10:00:07.039Z,101791.09
2023-01-21T10:02:48.800Z,101799.66
2023-01-21T10:05:24.689Z,101787.34
2023-01-21T10:07:51.527Z,101787.31
2023-01-21T10:10:22.605Z,101785.59
2023-01-21T10:13:01.439Z,101791.03
2023-01-21T10:15:57.686Z,101782.03
2023-01-21T10:18:30.839Z,101792.97
2023-01-21T10:21:05.029Z,101792.97
2023-01-21T10:23:34.665Z,101787.94
2023-01-21T10:26:05.203Z,101792.75
2023-01-21T10:28:32.791Z,101789.75
2023-01-21T10:31:15.835Z,101793.34
2023-01-21T10:33:45.408Z,101789.59
2023-01-21T10:36:35.064Z,101787.53
2023-01-21T10:39:08.073Z,101787.78
2023-01-21T10:41:55.179Z,101783.66
2023-01-21T10:44:25.741Z,101778.63
2023-01-21T10:47:04.418Z,101782.47
2023-01-21T10:49:49.775Z,101778.53
2023-01-21T10:52:22.849Z,101784.69
2023-01-21T10:54:59.108Z,101791.44
2023-01-21T10:57:46.236Z,101789.19
2023-01-21T11:00:18.988Z,101780.94
2023-01-21T11:02:53.420Z,101788.00
2023-01-21T11:05:21.181Z,101789.06
2023-01-21T11:07:48.445Z,101784.69
2023-01-21T11:10:25.620Z,101785.72
2023-01-21T11:12:54.341Z,101777.13
2023-01-21T11:15:22.240Z,101779.66
2023-01-21T11:17:50.583Z,101786.47
2023-01-21T11:20:23.373Z,101785.84
2023-01-21T11:22:50.538Z,101782.34
2023-01-21T11:25:36.061Z,101784.94
2023-01-21T11:28:03.674Z,101778.91
2023-01-21T11:30:49.706Z,101784.59
2023-01-21T11:33:17.071Z,101783.06
2023-01-21T11:35:45.424Z,101784.00
2023-01-21T11:38:22.978Z,101777.28
2023-01-21T11:40:59.324Z,101779.63
2023-01-21T11:43:49.342Z,101781.88
2023-01-21T11:46:28.912Z,101769.69
2023-01-21T11:48:56.881Z,101770.06
2023-01-21T11:51:23.599Z,101774.53
2023-01-21T11:54:06.578Z,101782.44
2023-01-21T11:56:33.102Z,101789.09
2023-01-21T11:58:59.642Z,101784.69
2023-01-21T12:01:27.559Z,101796.66
2023-01-21T12:03:56.448Z,101797.59
2023-01-21T12:06:30.498Z,101797.19
2023-01-21T12:08:59.974Z,101788.25
2023-01-21T12:11:28.245Z,101797.16
2023-01-21T12:14:13.614Z,101795.06
2023-01-21T12:16:40.100Z,101792.09
2023-01-21T12:19:16.682Z,101785.97
2023-01-21T12:21:49.878Z,101791.41
2023-01-21T12:24:35.168Z,101790.34
2023-01-21T12:27:04.678Z,101784.88
2023-01-21T12:29:43.372Z,101786.59
2023-01-21T12:32:13.867Z,101793.59
2023-01-21T12:34:43.824Z,101791.97
2023-01-21T12:37:18.386Z,101794.88
2023-01-21T12:39:48.912Z,101797.88
2023-01-21T12:42:18.550Z,101794.22
2023-01-21T12:44:48.847Z,101796.19
2023-01-21T12:47:27.485Z,101790.88
2023-01-21T12:50:01.584Z,101797.03
2023-01-21T12:52:46.872Z,101791.44
2023-01-21T12:55:30.300Z,101798.72
2023-01-21T12:58:00.003Z,101801.50
2023-01-21T13:00:34.077Z,101801.50
2023-01-21T13:03:09.027Z,101794.22
2023-01-21T13:05:38.816Z,101796.81
2023-01-21T13:08:11.625Z,101792.88
2023-01-21T13:10:40.950Z,101797.63
2023-01-21T13:13:15.072Z,101790.53
2023-01-21T13:15:45.493Z,101785.97
2023-01-21T13:18:15.856Z,101791.28
2023-01-21T13:20:52.743Z,101785.59
2023-01-21T13:23:33.206Z,101784.31
2023-01-21T13:26:02.804Z,101787.28
2023-01-21T13:28:39.903Z,101784.63
2023-01-21T13:31:22.607Z,101790.63
2023-01-21T13:34:20.388Z,101799.94
2023-01-21T13:36:49.664Z,101792.38
2023-01-21T13:39:28.153Z,101792.72
2023-01-21T13:42:03.923Z,101802.53
2023-01-21T13:44:49.239Z,101796.72
2023-01-21T13:47:32.795Z,101796.69
2023-01-21T13:50:02.507Z,101796.38
2023-01-21T13:52:55.737Z,101795.38
2023-01-21T13:55:38.236Z,101796.69
2023-01-21T13:58:25.642Z,101788.78
2023-01-21T14:01:01.468Z,101788.16
2023-01-21T14:03:33.536Z,101791.16
2023-01-21T14:06:05.277Z,101777.94
2023-01-21T14:08:40.258Z,101789.19
2023-01-21T14:11:09.992Z,101799.63
2023-01-21T14:13:46.792Z,101800.13
2023-01-21T14:16:16.683Z,101808.88
2023-01-21T14:18:55.078Z,101800.56
2023-01-21T14:21:39.939Z,101802.03
2023-01-21T14:24:22.721Z,101804.66
2023-01-21T14:26:57.346Z,101801.97
2023-01-21T14:29:34.721Z,101799.16
2023-01-21T14:32:05.973Z,101801.97
2023-01-21T14:34:59.278Z,101802.34
2023-01-21T14:37:52.229Z,101807.63
2023-01-21T14:40:23.006Z,101813.59
2023-01-21T14:42:51.015Z,101812.59
2023-01-21T14:45:22.552Z,101805.69
2023-01-21T14:47:50.863Z,101806.34
2023-01-21T14:50:37.270Z,101815.59
2023-01-21T14:53:10.675Z,101815.59
2023-01-21T14:55:37.239Z,101810.81
2023-01-21T14:58:04.104Z,101812.28
2023-01-21T15:00:32.424Z,101813.28
2023-01-21T15:03:02.104Z,101815.63
2023-01-21T15:05:32.407Z,101815.47
2023-01-21T15:08:01.947Z,101814.28
2023-01-21T15:10:38.908Z,101819.06
2023-01-21T15:13:22.335Z,101820.88
2023-01-21T15:16:07.736Z,101818.56
2023-01-21T15:18:36.794Z,101807.53
2023-01-21T15:21:23.465Z,101819.56
2023-01-21T15:23:50.307Z,101821.88
2023-01-21T15:26:18.886Z,101830.81
2023-01-21T15:28:49.616Z,101813.28
2023-01-21T15:31:23.492Z,101817.75
2023-01-21T15:33:55.324Z,101822.91
2023-01-21T15:36:31.107Z,101827.84
2023-01-21T15:39:02.619Z,101828.34
2023-01-21T15:41:29.232Z,101837.44
2023-01-21T15:44:04.342Z,101835.81
2023-01-21T15:46:56.308Z,101833.47
2023-01-21T15:49:33.146Z,101830.03
2023-01-21T15:52:18.824Z,101832.50
2023-01-21T15:54:50.214Z,101835.31
2023-01-21T15:57:22.865Z,101828.88
2023-01-21T16:00:09.670Z,101831.50
2023-01-21T16:02:58.014Z,101828.88
2023-01-21T16:05:31.191Z,101831.03
2023-01-21T16:08:07.036Z,101828.53
2023-01-21T16:10:42.096Z,101835.97
2023-01-21T16:13:14.160Z,101839.25
2023-01-21T16:15:53.131Z,101843.22
2023-01-21T16:18:30.950Z,101851.34
2023-01-21T16:21:00.569Z,101847.34
2023-01-21T16:23:29.160Z,101852.16
2023-01-21T16:25:55.764Z,101846.72
2023-01-21T16:28:22.544Z,101838.44
2023-01-21T16:30:57.276Z,101846.34
2023-01-21T16:33:24.008Z,101846.53
2023-01-21T16:35:56.208Z,101845.03
2023-01-21T16:38:26.964Z,101849.63
2023-01-21T16:41:16.899Z,101852.25
2023-01-21T16:43:45.786Z,101858.19
2023-01-21T16:46:14.747Z,101855.38
2023-01-21T16:48:41.781Z,101855.22
2023-01-21T16:51:23.735Z,101856.56
2023-01-21T16:53:53.036Z,101858.22
2023-01-21T16:56:28.303Z,101863.84
2023-01-21T16:59:01.360Z,101867.97
2023-01-21T17:01:31.933Z,101870.47
2023-01-21T17:04:03.546Z,101866.81
2023-01-21T17:06:35.585Z,101862.88
2023-01-21T17:09:08.753Z,101864.69
2023-01-21T17:11:38.789Z,101866.19
2023-01-21T17:14:10.467Z,101865.53
2023-01-21T17:16:39.811Z,101863.25
2023-01-21T17:19:26.450Z,101872.63
2023-01-21T17:21:55.870Z,101875.44
2023-01-21T17:24:25.343Z,101875.44
2023-01-21T17:27:04.627Z,101865.53
2023-01-21T17:29:33.994Z,101864.06
2023-01-21T17:32:02.344Z,101865.22
2023-01-21T17:34:36.560Z,101864.56
2023-01-21T17:37:33.425Z,101870.16
2023-01-21T17:40:16.041Z,101870.81
2023-01-21T17:42:43.455Z,101868.66
2023-01-21T17:48:10.972Z,101867.78
2023-01-21T17:50:46.561Z,101872.28
2023-01-21T17:53:33.337Z,101874.91
2023-01-21T17:56:19.205Z,101868.47
2023-01-21T17:59:27.343Z,101876.44
2023-01-21T18:02:03.875Z,101872.81
2023-01-21T18:07:20.718Z,101873.81
2023-01-21T18:10:34.157Z,101873.81
2023-01-21T18:13:09.665Z,101878.75
2023-01-21T18:15:54.462Z,101882.06
2023-01-21T18:19:31.191Z,101878.44
2023-01-21T18:22:26.683Z,101880.06
2023-01-21T18:24:56.090Z,101883.72
2023-01-21T18:27:35.857Z,101880.06
2023-01-21T18:30:14.843Z,101880.72
2023-01-21T18:32:56.271Z,101874.63
2023-01-21T18:35:32.806Z,101873.81
2023-01-21T18:38:03.006Z,101871.13
2023-01-21T18:40:32.565Z,101873.75
2023-01-21T18:43:01.657Z,101866.50
2023-01-21T18:45:31.849Z,101867.84
2023-01-21T18:48:03.674Z,101868.16
2023-01-21T18:50:37.124Z,101880.69
2023-01-21T18:53:09.684Z,101871.44
2023-01-21T18:55:36.813Z,101876.03
2023-01-21T18:58:18.262Z,101882.19
2023-01-21T19:00:45.472Z,101880.34
2023-01-21T19:03:21.829Z,101871.75
2023-01-21T19:05:51.430Z,101875.38
2023-01-21T19:08:27.113Z,101871.06
2023-01-21T19:10:56.082Z,101874.72
2023-01-21T19:13:25.659Z,101874.59
2023-01-21T19:16:01.064Z,101872.44
2023-01-21T19:18:28.279Z,101876.03
2023-01-21T19:20:55.760Z,101879.66
2023-01-21T19:23:28.016Z,101868.25
2023-01-21T19:25:58.648Z,101879.66
2023-01-21T19:28:26.151Z,101877.84
2023-01-21T19:30:55.809Z,101879.34
2023-01-21T19:33:25.142Z,101875.38
2023-01-21T19:36:12.833Z,101869.41
2023-01-21T19:38:42.653Z,101872.34
2023-01-21T19:41:20.340Z,101871.56
2023-01-21T19:43:47.399Z,101869.41
2023-01-21T19:46:23.264Z,101858.84
2023-01-21T19:48:54.139Z,101869.72
2023-01-21T19:51:25.740Z,101863.75
2023-01-21T19:53:58.226Z,101866.44
2023-01-21T19:56:27.879Z,101865.97
2023-01-21T19:58:57.634Z,101870.13
2023-01-21T20:01:25.911Z,101869.81
2023-01-21T20:04:00.650Z,101873.09
2023-01-21T20:06:32.119Z,101877.06
2023-01-21T20:09:00.738Z,101874.44
2023-01-21T20:11:30.796Z,101878.72
2023-01-21T20:13:57.931Z,101875.59
2023-01-21T20:16:27.516Z,101880.03
2023-01-21T20:18:59.704Z,101878.41
2023-01-21T20:21:26.562Z,101873.81
2023-01-21T20:23:53.325Z,101870.97
2023-01-21T20:26:26.695Z,101864.88
2023-01-21T20:28:54.694Z,101860.41
2023-01-21T20:31:21.765Z,101855.63
2023-01-21T20:33:49.115Z,101854.97
2023-01-21T20:36:23.365Z,101848.34
2023-01-21T20:39:00.038Z,101847.19
2023-01-21T20:41:31.435Z,101851.66
2023-01-21T20:44:01.408Z,101847.38
2023-01-21T20:46:29.861Z,101848.19
2023-01-21T20:49:00.343Z,101852.97
2023-01-21T20:51:27.625Z,101846.72
2023-01-21T20:53:57.452Z,101857.28
2023-01-21T20:56:24.059Z,101843.72
2023-01-21T20:58:54.119Z,101847.03
2023-01-21T21:01:22.008Z,101843.75
2023-01-21T21:03:49.104Z,101846.72
2023-01-21T21:06:19.698Z,101841.44
2023-01-21T21:08:50.032Z,101841.25
2023-01-21T21:11:17.121Z,101836.78
2023-01-21T21:13:46.709Z,101832.84
2023-01-21T21:16:28.674Z,101837.81
2023-01-21T21:18:56.525Z,101828.88
2023-01-21T21:21:24.164Z,101830.53
2023-01-21T21:23:52.218Z,101836.78
2023-01-21T21:26:23.876Z,101841.41
2023-01-21T21:28:51.313Z,101829.81
2023-01-21T21:31:18.605Z,101827.78
2023-01-21T21:33:45.327Z,101830.69
2023-01-21T21:36:19.541Z,101836.41
2023-01-21T21:38:47.045Z,101836.84
2023-01-21T21:41:39.511Z,101832.72
2023-01-21T21:44:06.994Z,101828.69
2023-01-21T21:46:52.529Z,101824.56
2023-01-21T21:49:21.161Z,101822.88
2023-01-21T21:51:48.352Z,101820.22
2023-01-21T21:54:17.866Z,101825.03
2023-01-21T21:56:49.365Z,101829.25
2023-01-21T21:59:18.379Z,101821.81
2023-01-21T22:01:45.195Z,101826.94
2023-01-21T22:04:12.729Z,101822.16
2023-01-21T22:06:39.941Z,101824.72
2023-01-21T22:09:10.070Z,101819.44
2023-01-21T22:11:40.829Z,101820.41
2023-01-21T22:14:45.664Z,101819.44
2023-01-21T22:17:12.848Z,101815.09
2023-01-21T22:19:49.460Z,101817.91
2023-01-21T22:22:19.908Z,101807.97
2023-01-21T22:24:54.515Z,101804.81
2023-01-21T22:27:21.709Z,101804.97
2023-01-21T22:29:48.365Z,101803.16
2023-01-21T22:32:16.203Z,101796.69
2023-01-21T22:34:47.939Z,101801.50
2023-01-21T22:37:37.310Z,101787.72
2023-01-21T22:40:21.568Z,101789.34
2023-01-21T22:42:59.218Z,101791.69
2023-01-21T22:45:30.208Z,101787.63
2023-01-21T22:48:08.229Z,101792.88
2023-01-21T22:50:45.892Z,101781.81
2023-01-21T22:56:02.966Z,101779.91
2023-01-21T22:59:09.769Z,101786.16
2023-01-21T23:01:45.826Z,101775.31
2023-01-21T23:04:17.881Z,101768.16
2023-01-21T23:06:48.998Z,101764.72
2023-01-21T23:10:20.172Z,101766.28
2023-01-21T23:13:05.143Z,101760.78
2023-01-21T23:16:19.286Z,101761.66
2023-01-21T23:22:15.435Z,101756.59
2023-01-21T23:25:07.047Z,101751.47
2023-01-21T23:28:24.591Z,101749.94
2023-01-21T23:30:55.491Z,101748.66
2023-01-21T23:33:27.446Z,101744.38
2023-01-21T23:35:57.534Z,101744.38
2023-01-21T23:38:28.196Z,101749.31
2023-01-21T23:40:55.955Z,101749.34
2023-01-21T23:43:26.676Z,101742.16
2023-01-21T23:45:56.595Z,101746.78
2023-01-21T23:48:23.287Z,101739.69
2023-01-21T23:53:51.138Z,101749.06
2023-01-21T23:56:23.716Z,101745.59
2023-01-21T23:58:56.921Z,101748.88
